createdAt,value
2023-03-26T00:01:38.469Z,6.10
2023-03-26T00:04:07.659Z,6.10
2023-03-26T00:06:40.004Z,6.10
2023-03-26T00:09:13.229Z,6.00
2023-03-26T00:11:41.369Z,6.00
2023-03-26T00:14:13.481Z,6.00
2023-03-26T00:16:43.754Z,6.10
2023-03-26T00:19:11.776Z,6.00
2023-03-26T00:21:38.840Z,6.00
2023-03-26T00:24:14.802Z,6.10
2023-03-26T00:26:43.496Z,6.10
2023-03-26T00:29:11.819Z,6.10
2023-03-26T00:31:39.838Z,6.10
2023-03-26T00:34:06.947Z,6.10
2023-03-26T00:36:35.725Z,6.10
2023-03-26T00:39:05.913Z,6.10
2023-03-26T00:41:36.807Z,6.10
2023-03-26T00:44:04.481Z,6.10
2023-03-26T00:46:32.175Z,6.00
2023-03-26T00:49:01.760Z,6.10
2023-03-26T00:51:29.770Z,6.10
2023-03-26T00:53:57.938Z,6.20
2023-03-26T00:56:26.013Z,6.20
2023-03-26T00:58:52.895Z,6.20
2023-03-26T01:01:27.174Z,6.20
2023-03-26T01:04:07.246Z,6.10
2023-03-26T01:06:41.773Z,6.00
2023-03-26T01:09:25.720Z,5.90
2023-03-26T01:11:53.018Z,5.80
2023-03-26T01:14:28.773Z,5.60
2023-03-26T01:17:04.302Z,5.60
2023-03-26T01:20:07.849Z,5.50
2023-03-26T01:22:39.600Z,5.40
2023-03-26T01:25:09.385Z,5.50
2023-03-26T01:27:54.915Z,5.50
2023-03-26T01:30:43.765Z,5.50
2023-03-26T01:33:36.741Z,5.40
2023-03-26T01:36:41.454Z,5.50
2023-03-26T01:39:49.485Z,5.40
2023-03-26T01:42:45.415Z,5.30
2023-03-26T01:45:25.564Z,5.30
2023-03-26T01:47:54.411Z,5.30
2023-03-26T01:50:21.520Z,5.30
2023-03-26T01:52:48.374Z,5.20
2023-03-26T01:55:15.616Z,5.20
2023-03-26T01:58:25.717Z,5.20
2023-03-26T02:01:27.102Z,5.20
2023-03-26T02:04:11.324Z,5.30
2023-03-26T02:06:53.709Z,5.30
2023-03-26T02:09:35.710Z,5.40
2023-03-26T02:12:06.950Z,5.50
2023-03-26T02:14:34.443Z,5.60
2023-03-26T02:17:01.314Z,5.70
2023-03-26T02:19:28.246Z,5.70
2023-03-26T02:21:59.742Z,5.70
2023-03-26T02:24:26.919Z,5.60
2023-03-26T02:26:54.048Z,5.60
2023-03-26T02:29:21.143Z,5.50
2023-03-26T02:31:49.217Z,5.50
2023-03-26T02:34:17.291Z,5.60
2023-03-26T02:36:44.180Z,5.60
2023-03-26T02:39:11.965Z,5.60
2023-03-26T02:41:39.728Z,5.70
2023-03-26T02:44:06.676Z,5.70
2023-03-26T02:46:34.230Z,5.70
2023-03-26T02:49:01.522Z,5.80
2023-03-26T02:51:28.733Z,5.80
2023-03-26T02:53:55.638Z,5.90
2023-03-26T02:56:22.515Z,5.90
2023-03-26T02:58:53.471Z,5.90
2023-03-26T03:01:20.685Z,5.80
2023-03-26T03:03:47.580Z,5.70
2023-03-26T03:06:19.989Z,5.60
2023-03-26T03:08:47.400Z,5.50
2023-03-26T03:11:22.079Z,5.40
2023-03-26T03:13:49.051Z,5.40
2023-03-26T03:16:16.844Z,5.40
2023-03-26T03:18:44.111Z,5.40
2023-03-26T03:21:11.010Z,5.50
2023-03-26T03:23:37.928Z,5.50
2023-03-26T03:26:06.659Z,5.60
2023-03-26T03:28:33.501Z,5.50
2023-03-26T03:31:00.378Z,5.50
2023-03-26T03:33:27.453Z,5.50
2023-03-26T03:35:54.594Z,5.30
2023-03-26T03:38:21.710Z,5.20
2023-03-26T03:40:48.619Z,5.10
2023-03-26T03:43:15.526Z,5.00
2023-03-26T03:45:42.446Z,4.90
2023-03-26T03:48:09.391Z,4.80
2023-03-26T03:50:36.381Z,4.80
2023-03-26T03:53:05.506Z,4.70
2023-03-26T03:55:32.534Z,4.60
2023-03-26T03:57:59.834Z,4.60
2023-03-26T04:00:26.759Z,4.60
2023-03-26T04:02:54.338Z,4.50
2023-03-26T04:05:22.085Z,4.50
2023-03-26T04:07:50.112Z,4.40
2023-03-26T04:10:17.337Z,4.30
2023-03-26T04:12:44.250Z,4.30
2023-03-26T04:15:11.418Z,4.30
2023-03-26T04:17:42.437Z,4.20
2023-03-26T04:20:15.528Z,4.10
2023-03-26T04:22:44.408Z,4.10
2023-03-26T04:25:13.464Z,4.00
2023-03-26T04:27:43.144Z,4.00
2023-03-26T04:30:20.547Z,3.90
2023-03-26T04:32:48.794Z,3.80
2023-03-26T04:35:17.282Z,3.80
2023-03-26T04:37:45.811Z,3.80
2023-03-26T04:40:21.775Z,3.70
2023-03-26T04:42:48.799Z,3.70
2023-03-26T04:45:22.461Z,3.70
2023-03-26T04:47:50.818Z,3.70
2023-03-26T04:50:17.856Z,3.70
2023-03-26T04:52:45.606Z,3.60
2023-03-26T04:55:33.274Z,3.60
2023-03-26T04:58:03.253Z,3.70
2023-03-26T05:00:30.425Z,3.60
2023-03-26T05:02:59.360Z,3.60
2023-03-26T05:05:29.085Z,3.80
2023-03-26T05:07:56.253Z,3.80
2023-03-26T05:10:23.669Z,3.80
2023-03-26T05:12:50.696Z,3.80
2023-03-26T05:15:17.697Z,3.80
2023-03-26T05:17:44.582Z,3.80
2023-03-26T05:20:29.593Z,3.90
2023-03-26T05:22:56.841Z,3.90
2023-03-26T05:25:23.879Z,4.00
2023-03-26T05:27:50.782Z,4.00
2023-03-26T05:30:21.141Z,4.00
2023-03-26T05:32:49.523Z,4.00
2023-03-26T05:35:17.826Z,4.10
2023-03-26T05:37:46.755Z,4.10
2023-03-26T05:40:16.902Z,4.10
2023-03-26T05:42:45.331Z,4.20
2023-03-26T05:45:15.368Z,4.20
2023-03-26T05:47:42.949Z,4.20
2023-03-26T05:50:11.387Z,4.20
2023-03-26T05:52:38.461Z,4.20
2023-03-26T05:55:07.945Z,4.30
2023-03-26T05:57:35.467Z,4.30
2023-03-26T06:00:06.081Z,4.40
2023-03-26T06:02:33.583Z,4.50
2023-03-26T06:05:01.123Z,4.60
2023-03-26T06:07:28.567Z,4.80
2023-03-26T06:09:55.610Z,5.00
2023-03-26T06:12:22.502Z,5.20
2023-03-26T06:14:49.402Z,5.30
2023-03-26T06:17:16.303Z,5.50
2023-03-26T06:19:43.169Z,5.70
2023-03-26T06:22:10.513Z,5.90
2023-03-26T06:24:37.394Z,6.10
2023-03-26T06:27:04.248Z,6.20
2023-03-26T06:29:31.111Z,6.20
2023-03-26T06:32:06.193Z,6.20
2023-03-26T06:34:39.558Z,6.30
2023-03-26T06:37:06.471Z,6.20
2023-03-26T06:39:33.367Z,6.20
2023-03-26T06:42:00.286Z,6.20
2023-03-26T06:44:27.305Z,6.30
2023-03-26T06:46:54.286Z,6.30
2023-03-26T06:49:21.349Z,6.40
2023-03-26T06:51:48.225Z,6.50
2023-03-26T06:54:15.282Z,6.60
2023-03-26T06:56:42.191Z,6.70
2023-03-26T06:59:09.934Z,6.80
2023-03-26T07:01:36.952Z,6.90
2023-03-26T07:04:03.968Z,7.00
2023-03-26T07:06:32.251Z,7.10
2023-03-26T07:08:59.214Z,7.10
2023-03-26T07:11:26.876Z,7.10
2023-03-26T07:13:56.064Z,7.10
2023-03-26T07:16:23.582Z,7.20
2023-03-26T07:18:51.017Z,7.20
2023-03-26T07:21:19.747Z,7.30
2023-03-26T07:23:47.985Z,7.30
2023-03-26T07:27:01.481Z,7.30
2023-03-26T07:30:22.618Z,7.30
2023-03-26T07:33:48.964Z,7.30
2023-03-26T07:36:48.833Z,7.40
2023-03-26T07:39:48.897Z,7.30
2023-03-26T07:42:58.580Z,7.30
2023-03-26T07:45:41.234Z,7.30
2023-03-26T07:48:27.100Z,7.20
2023-03-26T07:50:56.201Z,7.20
2023-03-26T07:53:23.977Z,7.10
2023-03-26T07:56:18.979Z,6.90
2023-03-26T07:59:06.391Z,6.80
2023-03-26T08:04:48.725Z,6.60
2023-03-26T08:07:56.261Z,6.50
2023-03-26T08:11:11.296Z,6.40
2023-03-26T08:14:16.235Z,6.20
2023-03-26T08:17:24.772Z,6.20
2023-03-26T08:20:07.555Z,6.20
2023-03-26T08:22:42.625Z,6.30
2023-03-26T08:25:34.832Z,6.30
2023-03-26T08:28:52.618Z,6.30
2023-03-26T08:31:36.199Z,6.30
2023-03-26T08:34:03.321Z,6.20
2023-03-26T08:36:30.776Z,6.20
2023-03-26T08:38:59.645Z,6.30
2023-03-26T08:42:17.889Z,6.30
2023-03-26T08:45:24.492Z,6.40
2023-03-26T08:48:51.048Z,6.50
2023-03-26T08:52:22.574Z,6.60
2023-03-26T08:55:25.793Z,6.60
2023-03-26T08:58:47.034Z,6.70
2023-03-26T09:02:06.744Z,6.70
2023-03-26T09:05:19.771Z,6.70
2023-03-26T09:08:34.395Z,6.70
2023-03-26T09:11:33.954Z,6.70
2023-03-26T09:14:39.586Z,6.70
2023-03-26T09:18:27.357Z,6.70
2023-03-26T09:21:50.123Z,6.70
2023-03-26T09:25:13.635Z,6.70
2023-03-26T09:28:36.331Z,6.80
2023-03-26T09:31:33.358Z,6.70
2023-03-26T09:34:21.947Z,6.70
2023-03-26T09:37:16.795Z,6.60
2023-03-26T09:40:16.249Z,6.50
2023-03-26T09:43:25.448Z,6.40
2023-03-26T09:46:40.655Z,6.30
2023-03-26T09:50:12.343Z,6.30
2023-03-26T09:53:28.699Z,6.30
2023-03-26T09:56:40.127Z,6.30
2023-03-26T09:59:57.359Z,6.30
2023-03-26T10:02:52.116Z,6.40
2023-03-26T10:06:06.681Z,6.50
2023-03-26T10:08:57.727Z,6.50
2023-03-26T10:12:09.449Z,6.50
2023-03-26T10:15:25.341Z,6.50
2023-03-26T10:18:40.512Z,6.40
2023-03-26T10:22:06.789Z,6.40
2023-03-26T10:25:14.872Z,6.40
2023-03-26T10:28:26.159Z,6.40
2023-03-26T10:31:39.592Z,6.40
2023-03-26T10:34:56.935Z,6.30
2023-03-26T10:38:06.089Z,6.30
2023-03-26T10:41:06.605Z,6.30
2023-03-26T10:44:08.999Z,6.30
2023-03-26T10:47:51.586Z,6.40
2023-03-26T10:51:06.823Z,6.40
2023-03-26T10:54:14.838Z,6.30
2023-03-26T10:56:49.728Z,6.50
2023-03-26T10:59:18.870Z,6.60
2023-03-26T11:02:31.082Z,6.60
2023-03-26T11:05:44.422Z,6.50
2023-03-26T11:08:57.689Z,6.40
2023-03-26T11:11:53.407Z,6.40
2023-03-26T11:14:35.190Z,6.30
2023-03-26T11:17:40.134Z,6.30
2023-03-26T11:20:46.419Z,6.40
2023-03-26T11:24:11.254Z,6.40
2023-03-26T11:27:17.442Z,6.30
2023-03-26T11:30:27.072Z,6.20
2023-03-26T11:33:07.593Z,6.00
2023-03-26T11:35:42.482Z,5.90
2023-03-26T11:38:31.747Z,5.80
2023-03-26T11:41:03.183Z,5.80
2023-03-26T11:43:36.555Z,5.80
2023-03-26T11:46:13.730Z,5.80
2023-03-26T11:48:59.328Z,5.90
2023-03-26T11:51:39.922Z,6.00
2023-03-26T11:54:11.412Z,6.00
2023-03-26T11:57:04.713Z,6.10
2023-03-26T11:59:57.219Z,6.10
2023-03-26T12:02:40.195Z,6.10
2023-03-26T12:05:31.171Z,6.50
2023-03-26T12:08:03.155Z,6.80
2023-03-26T12:10:42.823Z,7.10
2023-03-26T12:13:50.986Z,7.40
2023-03-26T12:16:21.680Z,7.80
2023-03-26T12:19:05.321Z,8.10
2023-03-26T12:21:49.858Z,8.40
2023-03-26T12:24:33.421Z,8.60
2023-03-26T12:27:30.776Z,8.90
2023-03-26T12:30:26.973Z,8.80
2023-03-26T12:33:05.746Z,8.70
2023-03-26T12:35:35.755Z,8.70
2023-03-26T12:38:35.723Z,8.80
2023-03-26T12:44:42.503Z,8.70
2023-03-26T12:44:58.974Z,8.40
2023-03-26T12:48:02.220Z,8.20
2023-03-26T12:50:45.449Z,8.00
2023-03-26T12:54:06.916Z,8.00
2023-03-26T12:57:12.071Z,8.10
2023-03-26T13:00:14.741Z,8.40
2023-03-26T13:03:20.837Z,8.50
2023-03-26T13:06:30.884Z,8.70
2023-03-26T13:09:32.755Z,10.10
2023-03-26T13:12:34.365Z,11.20
2023-03-26T13:15:44.039Z,13.50
2023-03-26T13:18:50.613Z,18.40
2023-03-26T13:21:50.276Z,21.60
2023-03-26T13:25:14.635Z,22.10
2023-03-26T13:28:31.438Z,22.00
2023-03-26T13:31:30.970Z,23.00
2023-03-26T13:35:24.272Z,23.10
2023-03-26T13:38:14.959Z,23.10
2023-03-26T13:41:23.984Z,24.80
2023-03-26T13:44:13.919Z,25.20
2023-03-26T13:46:55.092Z,24.20
2023-03-26T13:49:38.548Z,24.00
2023-03-26T13:52:33.162Z,24.30
2023-03-26T13:55:35.857Z,24.30
2023-03-26T13:58:41.899Z,23.40
2023-03-26T14:01:19.320Z,23.20
2023-03-26T14:04:23.535Z,22.00
2023-03-26T14:06:58.495Z,19.90
2023-03-26T14:09:44.162Z,20.10
2023-03-26T14:12:37.880Z,20.70
2023-03-26T14:15:20.418Z,19.50
2023-03-26T14:18:49.106Z,18.20
2023-03-26T14:22:14.094Z,18.10
2023-03-26T14:25:08.135Z,18.10
2023-03-26T14:28:54.139Z,18.20
2023-03-26T14:31:41.858Z,18.00
2023-03-26T14:34:29.132Z,16.00
2023-03-26T14:38:00.387Z,14.60
2023-03-26T14:41:08.983Z,14.90
2023-03-26T14:44:48.730Z,15.60
2023-03-26T14:47:25.105Z,17.80
2023-03-26T14:51:06.093Z,20.00
2023-03-26T14:53:42.230Z,20.20
2023-03-26T14:56:39.705Z,20.50
2023-03-26T15:00:06.998Z,19.30
2023-03-26T15:04:10.827Z,17.30
2023-03-26T15:07:15.312Z,16.50
2023-03-26T15:10:41.291Z,13.70
2023-03-26T15:13:38.614Z,12.10
2023-03-26T15:16:40.612Z,11.10
2023-03-26T15:20:21.058Z,11.00
2023-03-26T15:23:29.174Z,10.90
2023-03-26T15:26:59.240Z,11.10
2023-03-26T15:30:13.951Z,11.20
2023-03-26T15:34:26.232Z,12.10
2023-03-26T15:37:58.552Z,15.10
2023-03-26T15:40:56.397Z,17.60
2023-03-26T15:44:24.232Z,18.00
2023-03-26T15:47:40.979Z,19.40
2023-03-26T15:50:54.710Z,20.20
2023-03-26T15:53:45.035Z,20.00
2023-03-26T15:57:16.614Z,19.40
2023-03-26T16:00:01.123Z,17.50
2023-03-26T16:03:14.230Z,15.30
2023-03-26T16:06:28.090Z,14.00
2023-03-26T16:09:32.548Z,12.90
2023-03-26T16:12:30.650Z,12.00
2023-03-26T16:15:07.361Z,11.50
2023-03-26T16:18:19.334Z,11.50
2023-03-26T16:20:50.544Z,12.30
2023-03-26T16:23:47.544Z,13.70
2023-03-26T16:27:01.064Z,14.30
2023-03-26T16:29:31.977Z,14.90
2023-03-26T16:32:17.686Z,15.30
2023-03-26T16:35:15.485Z,14.60
2023-03-26T16:38:05.632Z,13.60
2023-03-26T16:40:56.924Z,12.50
2023-03-26T16:43:43.605Z,11.70
2023-03-26T16:47:01.450Z,11.00
2023-03-26T16:50:08.997Z,10.50
2023-03-26T16:53:01.007Z,10.10
2023-03-26T16:55:43.094Z,10.00
2023-03-26T16:58:37.740Z,9.90
2023-03-26T17:01:52.101Z,9.80
2023-03-26T17:04:27.485Z,9.70
2023-03-26T17:07:08.654Z,9.60
2023-03-26T17:10:11.677Z,9.40
2023-03-26T17:13:09.780Z,9.30
2023-03-26T17:15:57.747Z,9.00
2023-03-26T17:19:04.280Z,8.80
2023-03-26T17:22:28.877Z,8.60
2023-03-26T17:25:13.219Z,8.50
2023-03-26T17:28:07.381Z,8.40
2023-03-26T17:31:06.533Z,8.40
2023-03-26T17:33:38.760Z,8.50
2023-03-26T17:36:11.624Z,8.60
2023-03-26T17:38:38.817Z,8.60
2023-03-26T17:41:10.169Z,8.60
2023-03-26T17:43:50.086Z,8.60
2023-03-26T17:46:42.271Z,8.60
2023-03-26T17:49:12.065Z,8.60
2023-03-26T17:52:01.222Z,8.70
2023-03-26T17:54:46.336Z,8.60
2023-03-26T17:57:20.391Z,8.50
2023-03-26T17:59:55.948Z,8.50
2023-03-26T18:02:47.208Z,8.50
2023-03-26T18:05:17.405Z,8.50
2023-03-26T18:08:31.157Z,8.50
2023-03-26T18:11:43.865Z,8.40
2023-03-26T18:15:11.195Z,8.40
2023-03-26T18:17:46.929Z,8.40
2023-03-26T18:20:32.467Z,8.50
2023-03-26T18:23:11.045Z,8.50
2023-03-26T18:25:40.883Z,8.50
2023-03-26T18:28:13.857Z,8.50
2023-03-26T18:30:49.430Z,8.50
2023-03-26T18:33:16.357Z,8.40
2023-03-26T18:35:55.539Z,8.40
2023-03-26T18:38:36.780Z,8.30
2023-03-26T18:41:16.960Z,8.10
2023-03-26T18:43:44.762Z,7.70
2023-03-26T18:46:15.625Z,7.50
2023-03-26T18:48:44.124Z,7.30
2023-03-26T18:51:11.914Z,7.10
2023-03-26T18:53:50.670Z,6.90
2023-03-26T18:56:42.146Z,6.80
2023-03-26T18:59:32.510Z,6.70
2023-03-26T19:02:04.979Z,6.60
2023-03-26T19:04:34.844Z,6.50
2023-03-26T19:07:09.840Z,6.50
2023-03-26T19:09:39.394Z,6.40
2023-03-26T19:12:32.254Z,6.40
2023-03-26T19:15:12.553Z,6.40
2023-03-26T19:17:53.259Z,6.30
2023-03-26T19:20:28.011Z,6.30
2023-03-26T19:22:57.121Z,6.30
2023-03-26T19:25:33.603Z,6.20
2023-03-26T19:28:00.674Z,6.20
2023-03-26T19:30:38.704Z,6.20
2023-03-26T19:33:20.774Z,6.10
2023-03-26T19:36:03.471Z,6.10
2023-03-26T19:38:48.454Z,6.00
2023-03-26T19:41:37.964Z,6.00
2023-03-26T19:44:30.392Z,5.90
2023-03-26T19:47:17.513Z,5.90
2023-03-26T19:50:13.613Z,5.90
2023-03-26T19:52:40.523Z,5.80
2023-03-26T19:55:24.160Z,5.80
2023-03-26T19:57:51.616Z,5.70
2023-03-26T20:00:18.919Z,5.60
2023-03-26T20:02:46.391Z,5.60
2023-03-26T20:05:28.680Z,5.60
2023-03-26T20:08:10.057Z,5.50
2023-03-26T20:10:36.967Z,5.50
2023-03-26T20:13:04.113Z,5.50
2023-03-26T20:15:36.987Z,5.50
2023-03-26T20:18:03.982Z,5.50
2023-03-26T20:20:30.925Z,5.50
2023-03-26T20:22:57.820Z,5.50
2023-03-26T20:25:34.288Z,5.40
2023-03-26T20:28:01.172Z,5.50
2023-03-26T20:30:37.275Z,5.50
2023-03-26T20:33:12.481Z,5.50
2023-03-26T20:35:41.330Z,5.50
2023-03-26T20:38:09.633Z,5.40
2023-03-26T20:40:38.442Z,5.40
2023-03-26T20:43:13.656Z,5.40
2023-03-26T20:45:41.577Z,5.40
2023-03-26T20:48:10.253Z,5.40
2023-03-26T20:50:50.318Z,5.40
2023-03-26T20:53:18.846Z,5.40
2023-03-26T20:55:46.777Z,5.40
2023-03-26T20:58:31.759Z,5.40
2023-03-26T21:01:01.083Z,5.30
2023-03-26T21:03:28.275Z,5.30
2023-03-26T21:06:02.067Z,5.30
2023-03-26T21:08:35.889Z,5.30
2023-03-26T21:11:11.752Z,5.30
2023-03-26T21:13:51.608Z,5.30
2023-03-26T21:16:19.193Z,5.30
2023-03-26T21:18:46.792Z,5.30
2023-03-26T21:21:43.588Z,5.30
2023-03-26T21:24:29.329Z,5.40
2023-03-26T21:27:19.198Z,5.30
2023-03-26T21:29:46.580Z,5.30
2023-03-26T21:32:14.575Z,5.30
2023-03-26T21:34:55.759Z,5.30
2023-03-26T21:37:25.528Z,5.30
2023-03-26T21:39:52.900Z,5.30
2023-03-26T21:42:20.399Z,5.30
2023-03-26T21:44:47.741Z,5.30
2023-03-26T21:47:15.256Z,5.30
2023-03-26T21:49:42.463Z,5.30
2023-03-26T21:52:15.108Z,5.30
2023-03-26T21:54:43.009Z,5.30
2023-03-26T21:57:48.616Z,5.30
2023-03-26T22:00:18.892Z,5.20
2023-03-26T22:03:27.817Z,5.20
2023-03-26T22:06:20.913Z,5.20
2023-03-26T22:08:48.170Z,5.20
2023-03-26T22:11:15.081Z,5.20
2023-03-26T22:13:42.086Z,5.10
2023-03-26T22:16:10.601Z,5.10
2023-03-26T22:18:37.771Z,5.10
2023-03-26T22:21:05.815Z,5.10
2023-03-26T22:23:36.928Z,5.10
2023-03-26T22:26:05.818Z,5.10
2023-03-26T22:28:32.838Z,5.00
2023-03-26T22:31:07.037Z,5.00
2023-03-26T22:33:35.659Z,5.00
2023-03-26T22:36:02.532Z,5.00
2023-03-26T22:38:29.391Z,5.00
2023-03-26T22:40:58.088Z,5.00
2023-03-26T22:43:25.320Z,5.00
2023-03-26T22:45:56.242Z,5.00
2023-03-26T22:48:24.132Z,5.00
2023-03-26T22:51:08.054Z,5.00
2023-03-26T22:53:36.387Z,4.90
2023-03-26T22:56:04.660Z,4.90
2023-03-26T22:58:34.796Z,4.90
2023-03-26T23:01:23.743Z,4.80
2023-03-26T23:03:51.175Z,4.80
2023-03-26T23:06:18.482Z,4.70
2023-03-26T23:08:45.393Z,4.70
2023-03-26T23:11:17.982Z,4.70
2023-03-26T23:13:47.457Z,4.70
2023-03-26T23:16:17.186Z,4.70
2023-03-26T23:18:44.934Z,4.60
2023-03-26T23:21:20.264Z,4.60
2023-03-26T23:23:51.489Z,4.60
2023-03-26T23:26:18.466Z,4.60
2023-03-26T23:28:45.336Z,4.60
2023-03-26T23:31:13.209Z,4.70
2023-03-26T23:33:50.019Z,4.70
2023-03-26T23:36:20.076Z,4.70
2023-03-26T23:38:48.724Z,4.70
2023-03-26T23:41:22.907Z,4.70
2023-03-26T23:43:54.400Z,4.70
2023-03-26T23:46:34.668Z,4.70
2023-03-26T23:49:03.275Z,4.70
2023-03-26T23:51:31.327Z,4.70
2023-03-26T23:53:59.996Z,4.70
2023-03-26T23:56:30.284Z,4.80
2023-03-26T23:58:59.024Z,4.80
